sensor_id;sensor_type;location;lat;lon;timestamp;P1;durP1;ratioP1;P2;durP2;ratioP2
13366;SDS011;6752;52.612;13.630;2022-11-12T00:03:41;16.75;;;10.70;;
13366;SDS011;6752;52.612;13.630;2022-11-12T00:08:44;17.65;;;11.65;;
13366;SDS011;6752;52.612;13.630;2022-11-12T00:13:46;14.02;;;10.77;;
13366;SDS011;6752;52.612;13.630;2022-11-12T00:18:48;16.85;;;10.00;;
13366;SDS011;6752;52.612;13.630;2022-11-12T00:23:54;12.55;;;9.32;;
13366;SDS011;6752;52.612;13.630;2022-11-12T00:28:56;12.45;;;8.07;;
13366;SDS011;6752;52.612;13.630;2022-11-12T00:34:01;13.23;;;9.18;;
13366;SDS011;6752;52.612;13.630;2022-11-12T00:44:05;14.55;;;9.95;;
13366;SDS011;6752;52.612;13.630;2022-11-12T00:49:08;14.07;;;10.15;;
13366;SDS011;6752;52.612;13.630;2022-11-12T00:54:10;10.48;;;8.55;;
13366;SDS011;6752;52.612;13.630;2022-11-12T00:59:12;16.23;;;9.52;;
13366;SDS011;6752;52.612;13.630;2022-11-12T01:04:15;10.85;;;8.38;;
13366;SDS011;6752;52.612;13.630;2022-11-12T01:09:17;10.35;;;8.25;;
13366;SDS011;6752;52.612;13.630;2022-11-12T01:14:22;13.00;;;9.10;;
13366;SDS011;6752;52.612;13.630;2022-11-12T01:19:25;12.20;;;8.95;;
13366;SDS011;6752;52.612;13.630;2022-11-12T01:24:30;14.70;;;10.48;;
13366;SDS011;6752;52.612;13.630;2022-11-12T01:29:32;16.60;;;10.50;;
13366;SDS011;6752;52.612;13.630;2022-11-12T01:34:37;11.60;;;9.07;;
13366;SDS011;6752;52.612;13.630;2022-11-12T01:39:40;13.98;;;9.98;;
13366;SDS011;6752;52.612;13.630;2022-11-12T01:44:43;15.43;;;11.32;;
13366;SDS011;6752;52.612;13.630;2022-11-12T01:55:10;19.45;;;11.80;;
13366;SDS011;6752;52.612;13.630;2022-11-12T02:00:11;16.12;;;10.68;;
13366;SDS011;6752;52.612;13.630;2022-11-12T02:05:17;16.05;;;11.93;;
13366;SDS011;6752;52.612;13.630;2022-11-12T02:10:19;20.90;;;10.93;;
13366;SDS011;6752;52.612;13.630;2022-11-12T02:15:25;18.30;;;11.07;;
13366;SDS011;6752;52.612;13.630;2022-11-12T02:20:27;17.48;;;11.48;;
13366;SDS011;6752;52.612;13.630;2022-11-12T02:25:32;20.45;;;12.30;;
13366;SDS011;6752;52.612;13.630;2022-11-12T02:35:40;14.57;;;10.70;;
13366;SDS011;6752;52.612;13.630;2022-11-12T02:40:42;13.40;;;9.45;;
13366;SDS011;6752;52.612;13.630;2022-11-12T02:45:47;15.57;;;9.85;;
13366;SDS011;6752;52.612;13.630;2022-11-12T02:50:51;16.42;;;11.15;;
13366;SDS011;6752;52.612;13.630;2022-11-12T02:55:53;18.58;;;10.55;;
13366;SDS011;6752;52.612;13.630;2022-11-12T03:00:56;16.00;;;10.45;;
13366;SDS011;6752;52.612;13.630;2022-11-12T03:06:01;13.97;;;10.30;;
13366;SDS011;6752;52.612;13.630;2022-11-12T03:16:08;15.98;;;9.85;;
13366;SDS011;6752;52.612;13.630;2022-11-12T03:21:13;19.15;;;11.10;;
13366;SDS011;6752;52.612;13.630;2022-11-12T03:26:16;14.85;;;10.38;;
13366;SDS011;6752;52.612;13.630;2022-11-12T03:31:21;15.82;;;9.95;;
13366;SDS011;6752;52.612;13.630;2022-11-12T03:36:24;12.88;;;8.27;;
13366;SDS011;6752;52.612;13.630;2022-11-12T03:41:30;13.52;;;9.00;;
13366;SDS011;6752;52.612;13.630;2022-11-12T03:46:32;12.77;;;8.90;;
13366;SDS011;6752;52.612;13.630;2022-11-12T03:56:39;15.20;;;9.35;;
13366;SDS011;6752;52.612;13.630;2022-11-12T04:06:46;10.77;;;9.18;;
13366;SDS011;6752;52.612;13.630;2022-11-12T04:12:07;13.00;;;9.70;;
13366;SDS011;6752;52.612;13.630;2022-11-12T04:17:27;14.23;;;9.25;;
13366;SDS011;6752;52.612;13.630;2022-11-12T04:22:48;11.88;;;9.93;;
13366;SDS011;6752;52.612;13.630;2022-11-12T04:27:53;9.75;;;8.52;;
13366;SDS011;6752;52.612;13.630;2022-11-12T04:32:55;11.05;;;8.20;;
13366;SDS011;6752;52.612;13.630;2022-11-12T04:37:58;14.18;;;7.10;;
13366;SDS011;6752;52.612;13.630;2022-11-12T04:43:03;8.95;;;7.20;;
13366;SDS011;6752;52.612;13.630;2022-11-12T04:48:24;10.90;;;8.50;;
13366;SDS011;6752;52.612;13.630;2022-11-12T04:53:26;11.40;;;8.48;;
13366;SDS011;6752;52.612;13.630;2022-11-12T04:58:28;10.63;;;8.02;;
13366;SDS011;6752;52.612;13.630;2022-11-12T05:03:31;12.68;;;8.98;;
13366;SDS011;6752;52.612;13.630;2022-11-12T05:08:33;13.62;;;10.07;;
13366;SDS011;6752;52.612;13.630;2022-11-12T05:13:36;11.48;;;8.73;;
13366;SDS011;6752;52.612;13.630;2022-11-12T05:18:38;12.65;;;8.68;;
13366;SDS011;6752;52.612;13.630;2022-11-12T05:23:40;18.37;;;9.65;;
13366;SDS011;6752;52.612;13.630;2022-11-12T05:28:43;9.77;;;8.65;;
13366;SDS011;6752;52.612;13.630;2022-11-12T05:33:45;11.82;;;8.05;;
13366;SDS011;6752;52.612;13.630;2022-11-12T05:38:47;10.00;;;7.82;;
13366;SDS011;6752;52.612;13.630;2022-11-12T05:48:52;8.50;;;7.15;;
13366;SDS011;6752;52.612;13.630;2022-11-12T05:53:54;8.90;;;7.50;;
13366;SDS011;6752;52.612;13.630;2022-11-12T05:58:56;9.43;;;7.78;;
13366;SDS011;6752;52.612;13.630;2022-11-12T06:03:59;7.87;;;6.60;;
13366;SDS011;6752;52.612;13.630;2022-11-12T06:09:01;9.00;;;7.65;;
13366;SDS011;6752;52.612;13.630;2022-11-12T06:14:04;11.23;;;8.63;;
13366;SDS011;6752;52.612;13.630;2022-11-12T06:19:10;9.70;;;8.27;;
13366;SDS011;6752;52.612;13.630;2022-11-12T06:24:08;8.75;;;7.28;;
13366;SDS011;6752;52.612;13.630;2022-11-12T06:29:11;10.77;;;8.18;;
13366;SDS011;6752;52.612;13.630;2022-11-12T06:34:13;10.55;;;7.47;;
13366;SDS011;6752;52.612;13.630;2022-11-12T06:39:16;12.43;;;8.88;;
13366;SDS011;6752;52.612;13.630;2022-11-12T06:44:18;9.75;;;8.75;;
13366;SDS011;6752;52.612;13.630;2022-11-12T06:49:20;10.40;;;7.60;;
13366;SDS011;6752;52.612;13.630;2022-11-12T06:54:25;10.75;;;8.93;;
13366;SDS011;6752;52.612;13.630;2022-11-12T07:04:30;12.93;;;10.50;;
13366;SDS011;6752;52.612;13.630;2022-11-12T07:09:32;18.77;;;12.07;;
13366;SDS011;6752;52.612;13.630;2022-11-12T07:14:34;15.55;;;11.93;;
13366;SDS011;6752;52.612;13.630;2022-11-12T07:19:37;17.35;;;11.77;;
13366;SDS011;6752;52.612;13.630;2022-11-12T07:24:39;17.45;;;13.30;;
13366;SDS011;6752;52.612;13.630;2022-11-12T07:29:42;16.75;;;11.52;;
13366;SDS011;6752;52.612;13.630;2022-11-12T07:34:47;21.85;;;15.65;;
13366;SDS011;6752;52.612;13.630;2022-11-12T07:39:50;32.83;;;23.00;;
13366;SDS011;6752;52.612;13.630;2022-11-12T07:44:52;29.48;;;18.73;;
13366;SDS011;6752;52.612;13.630;2022-11-12T07:49:54;24.37;;;18.90;;
13366;SDS011;6752;52.612;13.630;2022-11-12T07:54:59;30.77;;;20.20;;
13366;SDS011;6752;52.612;13.630;2022-11-12T08:00:02;26.83;;;19.42;;
13366;SDS011;6752;52.612;13.630;2022-11-12T08:05:07;26.02;;;18.48;;
13366;SDS011;6752;52.612;13.630;2022-11-12T08:10:09;32.70;;;23.77;;
13366;SDS011;6752;52.612;13.630;2022-11-12T08:15:15;21.83;;;15.02;;
13366;SDS011;6752;52.612;13.630;2022-11-12T08:20:17;27.15;;;17.55;;
13366;SDS011;6752;52.612;13.630;2022-11-12T08:25:22;22.37;;;16.58;;
13366;SDS011;6752;52.612;13.630;2022-11-12T08:30:25;19.30;;;15.55;;
13366;SDS011;6752;52.612;13.630;2022-11-12T08:35:27;20.47;;;14.80;;
13366;SDS011;6752;52.612;13.630;2022-11-12T08:40:30;20.55;;;15.35;;
13366;SDS011;6752;52.612;13.630;2022-11-12T08:45:32;22.45;;;14.50;;
13366;SDS011;6752;52.612;13.630;2022-11-12T08:50:34;21.50;;;14.95;;
13366;SDS011;6752;52.612;13.630;2022-11-12T08:55:39;60.95;;;31.67;;
13366;SDS011;6752;52.612;13.630;2022-11-12T09:00:42;41.72;;;23.17;;
13366;SDS011;6752;52.612;13.630;2022-11-12T09:05:44;54.65;;;27.13;;
13366;SDS011;6752;52.612;13.630;2022-11-12T09:10:46;30.50;;;17.73;;
13366;SDS011;6752;52.612;13.630;2022-11-12T09:15:52;21.37;;;14.55;;
13366;SDS011;6752;52.612;13.630;2022-11-12T09:20:58;26.08;;;17.27;;
13366;SDS011;6752;52.612;13.630;2022-11-12T09:26:00;33.80;;;18.73;;
13366;SDS011;6752;52.612;13.630;2022-11-12T09:31:02;23.25;;;13.70;;
13366;SDS011;6752;52.612;13.630;2022-11-12T09:36:07;20.75;;;12.63;;
13366;SDS011;6752;52.612;13.630;2022-11-12T09:41:54;18.30;;;12.25;;
13366;SDS011;6752;52.612;13.630;2022-11-12T09:46:42;28.00;;;15.35;;
13366;SDS011;6752;52.612;13.630;2022-11-12T09:57:03;136.73;;;107.20;;
13366;SDS011;6752;52.612;13.630;2022-11-12T10:07:16;79.00;;;60.38;;
13366;SDS011;6752;52.612;13.630;2022-11-12T10:12:32;25.50;;;16.73;;
13366;SDS011;6752;52.612;13.630;2022-11-12T10:17:44;18.52;;;12.40;;
13366;SDS011;6752;52.612;13.630;2022-11-12T10:28:00;18.92;;;12.07;;
13366;SDS011;6752;52.612;13.630;2022-11-12T10:33:05;40.47;;;30.77;;
13366;SDS011;6752;52.612;13.630;2022-11-12T10:38:10;27.50;;;21.48;;
13366;SDS011;6752;52.612;13.630;2022-11-12T10:48:30;28.73;;;17.62;;
13366;SDS011;6752;52.612;13.630;2022-11-12T10:58:37;28.12;;;19.60;;
13366;SDS011;6752;52.612;13.630;2022-11-12T11:03:53;31.30;;;22.65;;
13366;SDS011;6752;52.612;13.630;2022-11-12T11:19:37;21.42;;;13.80;;
13366;SDS011;6752;52.612;13.630;2022-11-12T11:30:01;27.75;;;16.70;;
13366;SDS011;6752;52.612;13.630;2022-11-12T11:40:52;23.45;;;14.18;;
13366;SDS011;6752;52.612;13.630;2022-11-12T11:45:17;87.43;;;44.90;;
13366;SDS011;6752;52.612;13.630;2022-11-12T11:50:45;20.62;;;12.82;;
13366;SDS011;6752;52.612;13.630;2022-11-12T11:56:22;20.83;;;12.93;;
13366;SDS011;6752;52.612;13.630;2022-11-12T12:06:27;23.05;;;11.48;;
13366;SDS011;6752;52.612;13.630;2022-11-12T12:11:30;21.98;;;11.98;;
13366;SDS011;6752;52.612;13.630;2022-11-12T12:21:47;19.23;;;11.52;;
13366;SDS011;6752;52.612;13.630;2022-11-12T12:26:51;21.23;;;13.02;;
13366;SDS011;6752;52.612;13.630;2022-11-12T12:32:09;18.48;;;10.18;;
13366;SDS011;6752;52.612;13.630;2022-11-12T12:37:29;18.02;;;11.68;;
13366;SDS011;6752;52.612;13.630;2022-11-12T12:42:36;18.87;;;10.70;;
13366;SDS011;6752;52.612;13.630;2022-11-12T12:47:37;17.63;;;9.77;;
13366;SDS011;6752;52.612;13.630;2022-11-12T13:08:44;13.07;;;7.43;;
13366;SDS011;6752;52.612;13.630;2022-11-12T13:13:49;16.70;;;8.30;;
13366;SDS011;6752;52.612;13.630;2022-11-12T13:23:59;15.95;;;8.05;;
13366;SDS011;6752;52.612;13.630;2022-11-12T13:29:21;14.50;;;7.10;;
13366;SDS011;6752;52.612;13.630;2022-11-12T13:34:30;17.35;;;8.43;;
13366;SDS011;6752;52.612;13.630;2022-11-12T13:39:31;16.85;;;7.95;;
13366;SDS011;6752;52.612;13.630;2022-11-12T13:44:33;17.00;;;7.85;;
13366;SDS011;6752;52.612;13.630;2022-11-12T13:49:36;17.42;;;7.60;;
13366;SDS011;6752;52.612;13.630;2022-11-12T13:54:38;25.92;;;8.30;;
13366;SDS011;6752;52.612;13.630;2022-11-12T13:59:41;17.35;;;7.40;;
13366;SDS011;6752;52.612;13.630;2022-11-12T14:04:44;14.65;;;7.80;;
13366;SDS011;6752;52.612;13.630;2022-11-12T14:25:28;26.27;;;16.95;;
13366;SDS011;6752;52.612;13.630;2022-11-12T14:30:30;34.78;;;22.17;;
13366;SDS011;6752;52.612;13.630;2022-11-12T14:35:36;35.13;;;18.73;;
13366;SDS011;6752;52.612;13.630;2022-11-12T14:45:51;17.02;;;7.40;;
13366;SDS011;6752;52.612;13.630;2022-11-12T14:50:50;16.98;;;9.63;;
13366;SDS011;6752;52.612;13.630;2022-11-12T14:55:52;15.25;;;8.57;;
13366;SDS011;6752;52.612;13.630;2022-11-12T15:00:54;16.92;;;9.18;;
13366;SDS011;6752;52.612;13.630;2022-11-12T15:11:15;12.30;;;7.68;;
13366;SDS011;6752;52.612;13.630;2022-11-12T15:16:37;14.75;;;8.90;;
13366;SDS011;6752;52.612;13.630;2022-11-12T15:21:44;13.60;;;8.68;;
13366;SDS011;6752;52.612;13.630;2022-11-12T15:26:48;12.80;;;8.43;;
13366;SDS011;6752;52.612;13.630;2022-11-12T15:32:00;13.45;;;7.62;;
13366;SDS011;6752;52.612;13.630;2022-11-12T15:37:09;12.07;;;6.90;;
13366;SDS011;6752;52.612;13.630;2022-11-12T15:47:31;10.65;;;7.20;;
13366;SDS011;6752;52.612;13.630;2022-11-12T15:52:36;12.63;;;6.53;;
13366;SDS011;6752;52.612;13.630;2022-11-12T15:57:48;10.35;;;6.60;;
13366;SDS011;6752;52.612;13.630;2022-11-12T16:08:20;9.95;;;6.10;;
13366;SDS011;6752;52.612;13.630;2022-11-12T16:13:24;9.80;;;5.35;;
13366;SDS011;6752;52.612;13.630;2022-11-12T16:18:28;10.00;;;6.05;;
13366;SDS011;6752;52.612;13.630;2022-11-12T16:23:31;11.32;;;6.05;;
13366;SDS011;6752;52.612;13.630;2022-11-12T16:28:58;11.65;;;6.25;;
13366;SDS011;6752;52.612;13.630;2022-11-12T16:34:01;10.02;;;6.10;;
13366;SDS011;6752;52.612;13.630;2022-11-12T16:39:10;13.40;;;5.80;;
13366;SDS011;6752;52.612;13.630;2022-11-12T16:44:15;10.68;;;6.37;;
13366;SDS011;6752;52.612;13.630;2022-11-12T16:49:17;17.08;;;8.30;;
13366;SDS011;6752;52.612;13.630;2022-11-12T16:54:20;11.77;;;6.90;;
13366;SDS011;6752;52.612;13.630;2022-11-12T16:59:22;9.77;;;6.25;;
13366;SDS011;6752;52.612;13.630;2022-11-12T17:09:33;12.68;;;7.93;;
13366;SDS011;6752;52.612;13.630;2022-11-12T17:14:36;11.57;;;8.23;;
13366;SDS011;6752;52.612;13.630;2022-11-12T17:19:38;9.50;;;6.97;;
13366;SDS011;6752;52.612;13.630;2022-11-12T17:24:51;10.70;;;8.30;;
13366;SDS011;6752;52.612;13.630;2022-11-12T17:29:54;10.73;;;8.52;;
13366;SDS011;6752;52.612;13.630;2022-11-12T17:34:59;8.93;;;7.85;;
13366;SDS011;6752;52.612;13.630;2022-11-12T17:45:05;11.18;;;8.57;;
13366;SDS011;6752;52.612;13.630;2022-11-12T17:50:08;12.13;;;8.82;;
13366;SDS011;6752;52.612;13.630;2022-11-12T17:55:20;15.40;;;10.25;;
13366;SDS011;6752;52.612;13.630;2022-11-12T18:00:22;17.87;;;11.65;;
13366;SDS011;6752;52.612;13.630;2022-11-12T18:05:25;22.52;;;16.37;;
13366;SDS011;6752;52.612;13.630;2022-11-12T18:10:30;27.02;;;19.42;;
13366;SDS011;6752;52.612;13.630;2022-11-12T18:15:32;25.98;;;18.20;;
13366;SDS011;6752;52.612;13.630;2022-11-12T18:20:35;36.47;;;25.70;;
13366;SDS011;6752;52.612;13.630;2022-11-12T18:25:52;29.40;;;23.77;;
13366;SDS011;6752;52.612;13.630;2022-11-12T18:31:05;37.17;;;29.65;;
13366;SDS011;6752;52.612;13.630;2022-11-12T18:36:07;37.63;;;29.70;;
13366;SDS011;6752;52.612;13.630;2022-11-12T18:41:12;39.30;;;33.95;;
13366;SDS011;6752;52.612;13.630;2022-11-12T18:46:22;40.57;;;33.93;;
13366;SDS011;6752;52.612;13.630;2022-11-12T18:56:28;34.05;;;25.33;;
13366;SDS011;6752;52.612;13.630;2022-11-12T19:01:31;39.15;;;27.25;;
13366;SDS011;6752;52.612;13.630;2022-11-12T19:06:33;40.28;;;26.75;;
13366;SDS011;6752;52.612;13.630;2022-11-12T19:11:54;37.42;;;29.65;;
13366;SDS011;6752;52.612;13.630;2022-11-12T19:17:15;32.72;;;24.58;;
13366;SDS011;6752;52.612;13.630;2022-11-12T19:22:36;32.92;;;26.77;;
13366;SDS011;6752;52.612;13.630;2022-11-12T19:27:56;32.63;;;24.77;;
13366;SDS011;6752;52.612;13.630;2022-11-12T19:33:17;31.17;;;26.17;;
13366;SDS011;6752;52.612;13.630;2022-11-12T19:38:38;30.62;;;23.25;;
13366;SDS011;6752;52.612;13.630;2022-11-12T19:43:40;30.70;;;25.35;;
13366;SDS011;6752;52.612;13.630;2022-11-12T19:49:00;26.20;;;22.97;;
13366;SDS011;6752;52.612;13.630;2022-11-12T19:59:04;29.98;;;22.60;;
13366;SDS011;6752;52.612;13.630;2022-11-12T20:04:13;36.30;;;26.10;;
13366;SDS011;6752;52.612;13.630;2022-11-12T20:09:18;35.42;;;23.30;;
13366;SDS011;6752;52.612;13.630;2022-11-12T20:14:20;32.00;;;26.35;;
13366;SDS011;6752;52.612;13.630;2022-11-12T20:19:24;30.88;;;22.85;;
13366;SDS011;6752;52.612;13.630;2022-11-12T20:24:25;33.20;;;24.45;;
13366;SDS011;6752;52.612;13.630;2022-11-12T20:29:27;36.13;;;25.10;;
13366;SDS011;6752;52.612;13.630;2022-11-12T20:34:30;47.30;;;32.47;;
13366;SDS011;6752;52.612;13.630;2022-11-12T20:39:32;42.53;;;29.63;;
13366;SDS011;6752;52.612;13.630;2022-11-12T20:44:35;44.05;;;30.80;;
13366;SDS011;6752;52.612;13.630;2022-11-12T20:49:37;44.60;;;33.03;;
13366;SDS011;6752;52.612;13.630;2022-11-12T20:54:58;41.08;;;28.08;;
13366;SDS011;6752;52.612;13.630;2022-11-12T21:00:19;40.12;;;30.85;;
13366;SDS011;6752;52.612;13.630;2022-11-12T21:05:40;37.38;;;29.58;;
13366;SDS011;6752;52.612;13.630;2022-11-12T21:11:02;44.80;;;31.73;;
13366;SDS011;6752;52.612;13.630;2022-11-12T21:16:06;46.78;;;33.70;;
13366;SDS011;6752;52.612;13.630;2022-11-12T21:21:09;46.05;;;33.30;;
13366;SDS011;6752;52.612;13.630;2022-11-12T21:26:14;49.50;;;35.70;;
13366;SDS011;6752;52.612;13.630;2022-11-12T21:31:22;47.05;;;34.28;;
13366;SDS011;6752;52.612;13.630;2022-11-12T21:36:26;48.60;;;35.50;;
13366;SDS011;6752;52.612;13.630;2022-11-12T21:41:29;51.10;;;37.10;;
13366;SDS011;6752;52.612;13.630;2022-11-12T21:46:31;47.47;;;35.72;;
13366;SDS011;6752;52.612;13.630;2022-11-12T21:51:37;59.20;;;40.20;;
13366;SDS011;6752;52.612;13.630;2022-11-12T21:56:54;49.53;;;36.92;;
13366;SDS011;6752;52.612;13.630;2022-11-12T22:06:59;53.30;;;34.95;;
13366;SDS011;6752;52.612;13.630;2022-11-12T22:12:07;48.23;;;35.13;;
13366;SDS011;6752;52.612;13.630;2022-11-12T22:17:09;50.28;;;39.25;;
13366;SDS011;6752;52.612;13.630;2022-11-12T22:22:12;65.75;;;42.80;;
13366;SDS011;6752;52.612;13.630;2022-11-12T22:27:14;40.33;;;34.13;;
13366;SDS011;6752;52.612;13.630;2022-11-12T22:32:16;39.63;;;31.70;;
13366;SDS011;6752;52.612;13.630;2022-11-12T22:37:19;46.05;;;33.15;;
13366;SDS011;6752;52.612;13.630;2022-11-12T22:42:27;43.87;;;27.17;;
13366;SDS011;6752;52.612;13.630;2022-11-12T22:47:31;39.80;;;32.23;;
13366;SDS011;6752;52.612;13.630;2022-11-12T22:52:32;34.97;;;28.03;;
13366;SDS011;6752;52.612;13.630;2022-11-12T23:02:39;34.00;;;25.00;;
13366;SDS011;6752;52.612;13.630;2022-11-12T23:07:45;35.25;;;25.95;;
13366;SDS011;6752;52.612;13.630;2022-11-12T23:12:48;35.80;;;26.80;;
13366;SDS011;6752;52.612;13.630;2022-11-12T23:17:53;36.92;;;26.73;;
13366;SDS011;6752;52.612;13.630;2022-11-12T23:22:55;41.45;;;26.30;;
13366;SDS011;6752;52.612;13.630;2022-11-12T23:33:03;33.97;;;25.35;;
13366;SDS011;6752;52.612;13.630;2022-11-12T23:38:08;33.80;;;25.62;;
13366;SDS011;6752;52.612;13.630;2022-11-12T23:43:10;35.10;;;24.67;;
13366;SDS011;6752;52.612;13.630;2022-11-12T23:48:15;37.67;;;26.65;;
13366;SDS011;6752;52.612;13.630;2022-11-12T23:53:17;38.47;;;26.60;;
13366;SDS011;6752;52.612;13.630;2022-11-12T23:58:20;36.92;;;26.23;;
